createdAt,value
2024-01-26T00:04:45.237Z,52.10
2024-01-26T00:09:49.996Z,51.70
2024-01-26T00:14:54.148Z,51.70
2024-01-26T00:19:58.269Z,51.90
2024-01-26T00:25:02.758Z,51.70
2024-01-26T00:30:08.103Z,51.80
2024-01-26T00:35:12.110Z,51.70
2024-01-26T00:40:16.361Z,52.00
2024-01-26T00:45:20.626Z,51.80
2024-01-26T00:50:24.806Z,51.70
2024-01-26T00:55:30.910Z,51.60
2024-01-26T01:00:35.160Z,51.20
2024-01-26T01:05:40.836Z,51.00
2024-01-26T01:10:45.043Z,51.00
2024-01-26T01:15:49.186Z,51.00
2024-01-26T01:20:53.449Z,51.00
2024-01-26T01:25:57.761Z,50.80
2024-01-26T01:31:01.897Z,50.80
2024-01-26T01:36:06.829Z,51.10
2024-01-26T01:41:10.883Z,50.70
2024-01-26T01:46:14.913Z,51.00
2024-01-26T01:51:18.951Z,51.00
2024-01-26T01:56:24.827Z,50.80
2024-01-26T02:01:29.048Z,51.10
2024-01-26T02:06:33.420Z,51.10
2024-01-26T02:11:37.582Z,51.10
2024-01-26T02:16:41.562Z,51.60
2024-01-26T02:21:48.566Z,51.20
2024-01-26T02:26:53.898Z,51.00
2024-01-26T02:31:58.105Z,50.80
2024-01-26T02:37:02.410Z,50.80
2024-01-26T02:42:07.300Z,50.60
2024-01-26T02:47:11.501Z,50.90
2024-01-26T02:52:15.526Z,50.40
2024-01-26T02:57:19.542Z,50.40
2024-01-26T03:02:24.014Z,50.50
2024-01-26T03:07:29.578Z,50.30
2024-01-26T03:12:37.802Z,50.50
2024-01-26T03:17:41.997Z,50.30
2024-01-26T03:22:46.072Z,50.50
2024-01-26T03:27:50.520Z,50.40
2024-01-26T03:32:55.214Z,50.20
2024-01-26T03:37:59.598Z,50.80
2024-01-26T03:43:03.949Z,50.80
2024-01-26T03:48:08.680Z,51.00
2024-01-26T03:53:12.820Z,50.70
2024-01-26T03:58:16.858Z,51.00
2024-01-26T04:03:21.182Z,50.60
2024-01-26T04:08:25.743Z,50.40
2024-01-26T04:13:29.647Z,50.30
2024-01-26T04:18:34.135Z,49.90
2024-01-26T04:23:39.331Z,50.30
2024-01-26T04:28:43.503Z,50.30
2024-01-26T04:33:49.427Z,50.20
2024-01-26T04:38:53.866Z,49.90
2024-01-26T04:43:58.433Z,49.80
2024-01-26T04:49:02.669Z,49.60
2024-01-26T04:54:07.125Z,49.70
2024-01-26T04:59:11.395Z,49.80
2024-01-26T05:04:16.517Z,50.20
2024-01-26T05:09:20.796Z,50.40
2024-01-26T05:14:25.435Z,50.20
2024-01-26T05:19:30.044Z,50.40
2024-01-26T05:24:34.736Z,50.40
2024-01-26T05:29:39.199Z,50.60
2024-01-26T05:34:44.526Z,50.50
2024-01-26T05:39:49.082Z,50.50
2024-01-26T05:44:53.407Z,50.70
2024-01-26T05:49:57.747Z,50.80
2024-01-26T05:55:02.307Z,50.80
2024-01-26T06:00:08.080Z,50.90
2024-01-26T06:05:12.319Z,50.60
2024-01-26T06:10:17.963Z,50.90
2024-01-26T06:15:22.676Z,50.80
2024-01-26T06:20:32.873Z,50.00
2024-01-26T06:25:37.749Z,50.50
2024-01-26T06:30:42.010Z,50.20
2024-01-26T06:35:46.307Z,49.80
2024-01-26T06:40:51.191Z,49.80
2024-01-26T06:45:55.554Z,49.90
2024-01-26T06:51:00.026Z,50.20
2024-01-26T06:56:04.922Z,50.50
2024-01-26T07:01:09.270Z,51.30
2024-01-26T07:06:14.105Z,51.20
2024-01-26T07:11:21.289Z,50.70
2024-01-26T07:16:25.844Z,51.30
2024-01-26T07:21:31.006Z,51.30
2024-01-26T07:26:36.218Z,51.60
2024-01-26T07:31:42.895Z,51.50
2024-01-26T07:36:47.099Z,51.40
2024-01-26T07:41:51.574Z,52.10
2024-01-26T07:46:55.879Z,51.50
2024-01-26T07:52:00.532Z,52.00
2024-01-26T07:57:08.382Z,52.00
2024-01-26T08:02:12.918Z,52.00
2024-01-26T08:07:17.681Z,51.50
2024-01-26T08:12:30.097Z,51.00
2024-01-26T08:17:43.897Z,51.00
2024-01-26T08:22:48.525Z,50.70
2024-01-26T08:27:55.162Z,50.30
2024-01-26T08:32:59.716Z,50.40
2024-01-26T08:38:05.055Z,50.20
2024-01-26T08:43:10.761Z,50.00
2024-01-26T08:48:18.018Z,50.10
2024-01-26T08:53:22.648Z,49.50
2024-01-26T08:58:27.970Z,49.80
2024-01-26T09:03:32.507Z,49.30
2024-01-26T09:08:37.283Z,49.20
2024-01-26T09:13:41.819Z,49.20
2024-01-26T09:18:47.537Z,49.20
2024-01-26T09:23:51.962Z,49.20
2024-01-26T09:28:58.213Z,49.00
2024-01-26T09:34:02.791Z,49.10
2024-01-26T09:39:07.225Z,49.30
2024-01-26T09:44:12.541Z,49.60
2024-01-26T09:49:17.113Z,49.70
2024-01-26T09:54:24.781Z,50.10
2024-01-26T09:59:29.155Z,50.30
2024-01-26T10:04:33.596Z,50.50
2024-01-26T10:09:39.230Z,50.10
2024-01-26T10:14:43.807Z,50.00
2024-01-26T10:19:48.686Z,50.10
2024-01-26T10:24:53.403Z,50.00
2024-01-26T10:29:58.283Z,49.80
2024-01-26T10:35:04.999Z,49.10
2024-01-26T10:40:12.428Z,49.20
2024-01-26T10:45:17.916Z,49.20
2024-01-26T10:50:23.401Z,49.30
2024-01-26T10:55:28.652Z,50.00
2024-01-26T11:00:35.398Z,51.50
2024-01-26T11:05:40.637Z,51.10
2024-01-26T11:10:45.381Z,51.00
2024-01-26T11:15:51.148Z,50.80
2024-01-26T11:20:56.008Z,50.80
2024-01-26T11:26:00.538Z,50.80
2024-01-26T11:31:05.861Z,50.70
2024-01-26T11:36:13.949Z,51.10
2024-01-26T11:41:18.682Z,50.50
2024-01-26T11:46:24.710Z,50.40
2024-01-26T11:51:31.741Z,50.20
2024-01-26T11:56:36.565Z,50.10
2024-01-26T12:01:40.836Z,50.00
2024-01-26T12:06:47.343Z,50.30
2024-01-26T12:11:52.934Z,49.70
2024-01-26T12:16:57.331Z,50.00
2024-01-26T12:22:01.584Z,49.60
2024-01-26T12:27:05.978Z,49.70
2024-01-26T12:32:10.667Z,50.20
2024-01-26T12:37:15.733Z,49.30
2024-01-26T12:42:20.132Z,49.20
2024-01-26T12:47:26.465Z,49.20
2024-01-26T12:52:30.877Z,48.90
2024-01-26T12:57:35.654Z,48.50
2024-01-26T13:02:40.106Z,48.50
2024-01-26T13:07:44.457Z,48.40
2024-01-26T13:12:48.720Z,48.20
2024-01-26T13:23:00.603Z,47.10
2024-01-26T13:28:05.350Z,47.50
2024-01-26T13:33:09.921Z,47.50
2024-01-26T13:38:14.453Z,47.00
2024-01-26T13:43:19.744Z,46.50
2024-01-26T13:48:24.182Z,46.70
2024-01-26T13:53:29.002Z,46.20
2024-01-26T13:58:33.156Z,46.40
2024-01-26T14:03:40.392Z,47.00
2024-01-26T14:08:44.784Z,48.00
2024-01-26T14:13:50.244Z,47.90
2024-01-26T14:18:55.421Z,48.50
2024-01-26T14:23:59.786Z,49.20
2024-01-26T14:29:12.180Z,49.00
2024-01-26T14:34:16.395Z,48.50
2024-01-26T14:39:21.567Z,48.00
2024-01-26T14:44:27.194Z,47.90
2024-01-26T14:49:33.227Z,47.60
2024-01-26T14:54:39.093Z,47.80
2024-01-26T14:59:43.698Z,47.60
2024-01-26T15:04:48.394Z,47.80
2024-01-26T15:09:53.031Z,47.80
2024-01-26T15:14:58.622Z,47.70
2024-01-26T15:20:08.247Z,47.70
2024-01-26T15:25:15.064Z,47.60
2024-01-26T15:30:19.883Z,47.50
2024-01-26T15:35:24.831Z,47.90
2024-01-26T15:40:29.417Z,47.80
2024-01-26T15:45:33.865Z,47.90
2024-01-26T15:50:38.571Z,47.80
2024-01-26T15:55:44.295Z,48.00
2024-01-26T16:00:49.959Z,47.80
2024-01-26T16:05:54.674Z,48.10
2024-01-26T16:11:01.673Z,48.50
2024-01-26T16:16:06.432Z,47.80
2024-01-26T16:21:10.725Z,47.60
2024-01-26T16:26:17.308Z,48.00
2024-01-26T16:31:21.717Z,48.60
2024-01-26T16:36:28.733Z,48.70
2024-01-26T16:41:33.133Z,48.70
2024-01-26T16:46:37.584Z,49.90
2024-01-26T16:51:41.830Z,49.50
2024-01-26T16:56:46.140Z,49.40
2024-01-26T17:01:54.910Z,49.90
2024-01-26T17:07:03.118Z,49.80
2024-01-26T17:12:08.544Z,49.70
2024-01-26T17:17:13.247Z,49.70
2024-01-26T17:22:17.604Z,49.70
2024-01-26T17:27:22.646Z,49.90
2024-01-26T17:32:27.612Z,49.40
2024-01-26T17:37:32.224Z,49.00
2024-01-26T17:42:36.381Z,49.20
2024-01-26T17:47:44.142Z,49.70
2024-01-26T17:52:48.538Z,49.30
2024-01-26T17:57:52.745Z,49.50
2024-01-26T18:02:57.285Z,49.30
2024-01-26T18:08:01.667Z,49.20
2024-01-26T18:13:06.104Z,49.70
2024-01-26T18:18:10.770Z,49.50
2024-01-26T18:23:18.760Z,50.40
2024-01-26T18:28:25.274Z,50.60
2024-01-26T18:33:29.802Z,51.60
2024-01-26T18:38:35.331Z,51.10
2024-01-26T18:43:39.811Z,51.50
2024-01-26T18:48:46.342Z,51.00
2024-01-26T18:53:50.982Z,50.70
2024-01-26T18:58:56.114Z,51.10
2024-01-26T19:04:04.076Z,51.00
2024-01-26T19:09:11.974Z,50.80
2024-01-26T19:14:16.160Z,51.00
2024-01-26T19:19:20.786Z,51.80
2024-01-26T19:24:26.124Z,51.00
2024-01-26T19:29:32.118Z,51.60
2024-01-26T19:34:37.124Z,52.00
2024-01-26T19:39:45.107Z,52.00
2024-01-26T19:44:50.053Z,52.30
2024-01-26T19:49:55.150Z,53.00
2024-01-26T19:55:00.197Z,52.50
2024-01-26T20:00:05.914Z,51.90
2024-01-26T20:05:11.670Z,52.50
2024-01-26T20:10:20.102Z,51.80
2024-01-26T20:15:25.939Z,52.50
2024-01-26T20:20:30.745Z,52.90
2024-01-26T20:25:44.576Z,53.20
2024-01-26T20:30:49.217Z,52.90
2024-01-26T20:35:53.948Z,52.80
2024-01-26T20:40:59.046Z,53.00
2024-01-26T20:46:07.297Z,52.60
2024-01-26T20:51:14.347Z,52.70
2024-01-26T20:56:18.814Z,52.60
2024-01-26T21:01:24.325Z,52.90
2024-01-26T21:06:29.553Z,52.60
2024-01-26T21:11:35.431Z,51.40
2024-01-26T21:16:40.218Z,51.90
2024-01-26T21:21:45.332Z,51.30
2024-01-26T21:26:50.010Z,51.10
2024-01-26T21:31:54.509Z,51.10
2024-01-26T21:36:59.072Z,51.00
2024-01-26T21:42:04.033Z,50.50
2024-01-26T21:47:08.668Z,50.30
2024-01-26T21:52:15.046Z,50.20
2024-01-26T21:57:21.221Z,55.10
2024-01-26T22:02:26.985Z,53.10
2024-01-26T22:07:31.294Z,53.60
2024-01-26T22:12:36.683Z,53.30
2024-01-26T22:17:42.939Z,53.10
2024-01-26T22:22:49.650Z,53.30
2024-01-26T22:27:55.140Z,53.70
2024-01-26T22:32:59.995Z,53.40
2024-01-26T22:38:05.444Z,53.20
2024-01-26T22:43:11.149Z,53.20
2024-01-26T22:48:15.969Z,53.50
2024-01-26T22:53:21.704Z,53.30
2024-01-26T22:58:26.184Z,53.20
2024-01-26T23:03:30.744Z,53.30
2024-01-26T23:08:35.689Z,52.90
2024-01-26T23:13:40.269Z,52.10
2024-01-26T23:18:45.968Z,52.10
2024-01-26T23:23:50.371Z,51.70
2024-01-26T23:28:55.097Z,51.50
2024-01-26T23:33:59.651Z,51.60
2024-01-26T23:39:05.983Z,51.50
2024-01-26T23:44:12.015Z,51.50
2024-01-26T23:49:16.551Z,51.60
2024-01-26T23:54:21.021Z,51.90
2024-01-26T23:59:26.546Z,52.50
